sensor_id;sensor_type;location;lat;lon;timestamp;pressure;altitude;pressure_sealevel;temperature;humidity
6680;BME280;3376;42.664;23.346;2022-10-22T00:01:37;95381.81;;;8.65;100.00
6680;BME280;3376;42.664;23.346;2022-10-22T00:04:04;95388.88;;;8.63;100.00
6680;BME280;3376;42.664;23.346;2022-10-22T00:06:31;95376.13;;;8.61;100.00
6680;BME280;3376;42.664;23.346;2022-10-22T00:08:58;95386.44;;;8.61;100.00
6680;BME280;3376;42.664;23.346;2022-10-22T00:11:25;95386.31;;;8.63;100.00
6680;BME280;3376;42.664;23.346;2022-10-22T00:13:53;95386.31;;;8.63;100.00
6680;BME280;3376;42.664;23.346;2022-10-22T00:16:20;95385.38;;;8.64;100.00
6680;BME280;3376;42.664;23.346;2022-10-22T00:18:47;95400.97;;;8.62;100.00
6680;BME280;3376;42.664;23.346;2022-10-22T00:21:14;95389.84;;;8.62;100.00
6680;BME280;3376;42.664;23.346;2022-10-22T00:23:41;95393.38;;;8.61;100.00
6680;BME280;3376;42.664;23.346;2022-10-22T00:26:09;95392.44;;;8.62;100.00
6680;BME280;3376;42.664;23.346;2022-10-22T00:28:36;95361.44;;;8.35;100.00
6680;BME280;3376;42.664;23.346;2022-10-22T00:31:05;95338.63;;;8.20;100.00
6680;BME280;3376;42.664;23.346;2022-10-22T00:33:32;95369.06;;;8.54;100.00
6680;BME280;3376;42.664;23.346;2022-10-22T00:35:59;95369.06;;;8.54;100.00
6680;BME280;3376;42.664;23.346;2022-10-22T00:38:26;95368.00;;;8.56;100.00
6680;BME280;3376;42.664;23.346;2022-10-22T00:40:53;95359.72;;;8.53;100.00
6680;BME280;3376;42.664;23.346;2022-10-22T00:43:20;95364.06;;;8.52;100.00
6680;BME280;3376;42.664;23.346;2022-10-22T00:45:47;95367.03;;;8.57;100.00
6680;BME280;3376;42.664;23.346;2022-10-22T00:48:17;95361.91;;;8.48;100.00
6680;BME280;3376;42.664;23.346;2022-10-22T00:50:49;95370.09;;;8.43;100.00
6680;BME280;3376;42.664;23.346;2022-10-22T00:53:22;95313.53;;;8.03;100.00
6680;BME280;3376;42.664;23.346;2022-10-22T00:55:52;95349.75;;;8.30;100.00
6680;BME280;3376;42.664;23.346;2022-10-22T00:58:22;95362.06;;;8.37;100.00
6680;BME280;3376;42.664;23.346;2022-10-22T01:00:50;95366.31;;;8.38;100.00
6680;BME280;3376;42.664;23.346;2022-10-22T01:03:18;95344.84;;;8.18;100.00
6680;BME280;3376;42.664;23.346;2022-10-22T01:05:51;95336.56;;;8.14;100.00
6680;BME280;3376;42.664;23.346;2022-10-22T01:08:25;95340.09;;;8.23;100.00
6680;BME280;3376;42.664;23.346;2022-10-22T01:11:02;95335.34;;;8.28;100.00
6680;BME280;3376;42.664;23.346;2022-10-22T01:13:39;95327.75;;;8.26;100.00
6680;BME280;3376;42.664;23.346;2022-10-22T01:16:16;95328.03;;;8.23;100.00
6680;BME280;3376;42.664;23.346;2022-10-22T01:18:53;95326.78;;;8.18;100.00
6680;BME280;3376;42.664;23.346;2022-10-22T01:21:30;95322.44;;;8.18;100.00
6680;BME280;3376;42.664;23.346;2022-10-22T01:24:18;95329.38;;;8.27;100.00
6680;BME280;3376;42.664;23.346;2022-10-22T01:27:24;95322.59;;;8.07;100.00
6680;BME280;3376;42.664;23.346;2022-10-22T01:29:57;95286.31;;;7.82;100.00
6680;BME280;3376;42.664;23.346;2022-10-22T01:32:25;95294.41;;;7.96;100.00
6680;BME280;3376;42.664;23.346;2022-10-22T01:34:57;95313.13;;;8.08;100.00
6680;BME280;3376;42.664;23.346;2022-10-22T01:37:28;95284.25;;;7.95;100.00
6680;BME280;3376;42.664;23.346;2022-10-22T01:39:56;95312.19;;;8.09;100.00
6680;BME280;3376;42.664;23.346;2022-10-22T01:42:25;95306.88;;;8.10;100.00
6680;BME280;3376;42.664;23.346;2022-10-22T01:44:53;95283.00;;;7.99;100.00
6680;BME280;3376;42.664;23.346;2022-10-22T01:47:29;95294.03;;;7.91;100.00
6680;BME280;3376;42.664;23.346;2022-10-22T01:50:15;95288.22;;;7.70;100.00
6680;BME280;3376;42.664;23.346;2022-10-22T01:53:07;95214.41;;;7.23;100.00
6680;BME280;3376;42.664;23.346;2022-10-22T01:55:43;95265.59;;;7.64;100.00
6680;BME280;3376;42.664;23.346;2022-10-22T01:58:27;95303.78;;;7.97;100.00
6680;BME280;3376;42.664;23.346;2022-10-22T02:01:04;95303.25;;;7.94;100.00
6680;BME280;3376;42.664;23.346;2022-10-22T02:03:38;95287.31;;;7.71;100.00
6680;BME280;3376;42.664;23.346;2022-10-22T02:06:11;95298.66;;;7.78;100.00
6680;BME280;3376;42.664;23.346;2022-10-22T02:08:40;95302.06;;;7.88;100.00
6680;BME280;3376;42.664;23.346;2022-10-22T02:11:08;95305.56;;;7.87;100.00
6680;BME280;3376;42.664;23.346;2022-10-22T02:13:40;95302.50;;;7.74;100.00
6680;BME280;3376;42.664;23.346;2022-10-22T02:16:12;95306.28;;;7.80;100.00
6680;BME280;3376;42.664;23.346;2022-10-22T02:18:44;95301.53;;;7.75;100.00
6680;BME280;3376;42.664;23.346;2022-10-22T02:21:11;95258.84;;;7.44;100.00
6680;BME280;3376;42.664;23.346;2022-10-22T02:23:39;95296.66;;;7.72;100.00
6680;BME280;3376;42.664;23.346;2022-10-22T02:26:10;95184.97;;;7.06;100.00
6680;BME280;3376;42.664;23.346;2022-10-22T02:28:44;95283.75;;;7.72;100.00
6680;BME280;3376;42.664;23.346;2022-10-22T02:31:21;95286.88;;;7.76;100.00
6680;BME280;3376;42.664;23.346;2022-10-22T02:33:51;95294.06;;;7.72;100.00
6680;BME280;3376;42.664;23.346;2022-10-22T02:36:21;95309.66;;;7.80;100.00
6680;BME280;3376;42.664;23.346;2022-10-22T02:38:50;95280.41;;;7.62;100.00
6680;BME280;3376;42.664;23.346;2022-10-22T02:41:17;95311.88;;;7.66;100.00
6680;BME280;3376;42.664;23.346;2022-10-22T02:43:49;95320.69;;;7.63;100.00
6680;BME280;3376;42.664;23.346;2022-10-22T02:46:17;95312.41;;;7.60;100.00
6680;BME280;3376;42.664;23.346;2022-10-22T02:48:44;95327.09;;;7.59;100.00
6680;BME280;3376;42.664;23.346;2022-10-22T02:51:11;95328.84;;;7.59;100.00
6680;BME280;3376;42.664;23.346;2022-10-22T02:53:38;95311.88;;;7.37;100.00
6680;BME280;3376;42.664;23.346;2022-10-22T02:56:05;95323.00;;;7.38;100.00
6680;BME280;3376;42.664;23.346;2022-10-22T02:58:32;95305.00;;;7.28;100.00
6680;BME280;3376;42.664;23.346;2022-10-22T03:00:59;95318.13;;;7.44;100.00
6680;BME280;3376;42.664;23.346;2022-10-22T03:03:27;95317.03;;;7.37;100.00
6680;BME280;3376;42.664;23.346;2022-10-22T03:05:54;95313.25;;;7.41;100.00
6680;BME280;3376;42.664;23.346;2022-10-22T03:08:20;95318.66;;;7.48;100.00
6680;BME280;3376;42.664;23.346;2022-10-22T03:10:47;95320.84;;;7.52;100.00
6680;BME280;3376;42.664;23.346;2022-10-22T03:13:14;95311.31;;;7.53;100.00
6680;BME280;3376;42.664;23.346;2022-10-22T03:15:41;95315.13;;;7.58;100.00
6680;BME280;3376;42.664;23.346;2022-10-22T03:18:08;95270.13;;;7.24;100.00
6680;BME280;3376;42.664;23.346;2022-10-22T03:20:36;95310.94;;;7.57;100.00
6680;BME280;3376;42.664;23.346;2022-10-22T03:23:03;95315.13;;;7.58;100.00
6680;BME280;3376;42.664;23.346;2022-10-22T03:25:31;95255.63;;;7.23;100.00
6680;BME280;3376;42.664;23.346;2022-10-22T03:28:01;95303.75;;;7.51;100.00
6680;BME280;3376;42.664;23.346;2022-10-22T03:30:28;95299.50;;;7.69;100.00
6680;BME280;3376;42.664;23.346;2022-10-22T03:32:55;95299.50;;;7.69;100.00
6680;BME280;3376;42.664;23.346;2022-10-22T03:35:23;95315.25;;;7.66;100.00
6680;BME280;3376;42.664;23.346;2022-10-22T03:37:51;95306.19;;;7.62;100.00
6680;BME280;3376;42.664;23.346;2022-10-22T03:40:18;95299.94;;;7.55;100.00
6680;BME280;3376;42.664;23.346;2022-10-22T03:42:46;95303.19;;;7.48;100.00
6680;BME280;3376;42.664;23.346;2022-10-22T03:45:12;95297.66;;;7.52;100.00
6680;BME280;3376;42.664;23.346;2022-10-22T03:47:39;95269.84;;;7.37;100.00
6680;BME280;3376;42.664;23.346;2022-10-22T03:50:07;95292.63;;;7.51;100.00
6680;BME280;3376;42.664;23.346;2022-10-22T03:52:35;95291.28;;;7.47;100.00
6680;BME280;3376;42.664;23.346;2022-10-22T03:55:05;95296.41;;;7.37;100.00
6680;BME280;3376;42.664;23.346;2022-10-22T03:57:33;95152.91;;;6.53;100.00
6680;BME280;3376;42.664;23.346;2022-10-22T04:00:00;95290.84;;;7.51;100.00
6680;BME280;3376;42.664;23.346;2022-10-22T04:02:27;95311.63;;;7.59;100.00
6680;BME280;3376;42.664;23.346;2022-10-22T04:04:54;95281.63;;;7.39;100.00
6680;BME280;3376;42.664;23.346;2022-10-22T04:07:20;95297.75;;;7.60;100.00
6680;BME280;3376;42.664;23.346;2022-10-22T04:09:47;95289.78;;;7.44;100.00
6680;BME280;3376;42.664;23.346;2022-10-22T04:12:15;95293.19;;;7.35;100.00
6680;BME280;3376;42.664;23.346;2022-10-22T04:14:42;95285.47;;;7.35;100.00
6680;BME280;3376;42.664;23.346;2022-10-22T04:17:09;95292.22;;;7.36;100.00
6680;BME280;3376;42.664;23.346;2022-10-22T04:19:36;95290.72;;;7.43;100.00
6680;BME280;3376;42.664;23.346;2022-10-22T04:22:02;95282.03;;;7.44;100.00
6680;BME280;3376;42.664;23.346;2022-10-22T04:24:30;95281.91;;;7.55;100.00
6680;BME280;3376;42.664;23.346;2022-10-22T04:26:57;95253.00;;;7.42;100.00
6680;BME280;3376;42.664;23.346;2022-10-22T04:29:25;95282.00;;;7.63;100.00
6680;BME280;3376;42.664;23.346;2022-10-22T04:31:52;95280.69;;;7.59;100.00
6680;BME280;3376;42.664;23.346;2022-10-22T04:34:19;95279.97;;;7.67;100.00
6680;BME280;3376;42.664;23.346;2022-10-22T04:36:46;95266.53;;;7.63;100.00
6680;BME280;3376;42.664;23.346;2022-10-22T04:39:13;95292.19;;;7.74;100.00
6680;BME280;3376;42.664;23.346;2022-10-22T04:41:40;95289.19;;;7.69;100.00
6680;BME280;3376;42.664;23.346;2022-10-22T04:44:07;95293.53;;;7.69;100.00
6680;BME280;3376;42.664;23.346;2022-10-22T04:46:35;95294.75;;;7.74;100.00
6680;BME280;3376;42.664;23.346;2022-10-22T04:49:02;95257.47;;;7.59;100.00
6680;BME280;3376;42.664;23.346;2022-10-22T04:51:29;95284.81;;;7.79;100.00
6680;BME280;3376;42.664;23.346;2022-10-22T04:53:56;95277.63;;;7.83;100.00
6680;BME280;3376;42.664;23.346;2022-10-22T04:56:24;95284.38;;;7.93;100.00
6680;BME280;3376;42.664;23.346;2022-10-22T04:58:53;95284.94;;;7.87;100.00
6680;BME280;3376;42.664;23.346;2022-10-22T05:01:21;95295.19;;;8.06;100.00
6680;BME280;3376;42.664;23.346;2022-10-22T05:03:51;95298.94;;;8.21;100.00
6680;BME280;3376;42.664;23.346;2022-10-22T05:06:19;95305.19;;;8.28;100.00
6680;BME280;3376;42.664;23.346;2022-10-22T05:08:47;95299.84;;;8.40;100.00
6680;BME280;3376;42.664;23.346;2022-10-22T05:11:16;95300.56;;;8.32;100.00
6680;BME280;3376;42.664;23.346;2022-10-22T05:13:43;95318.34;;;8.35;100.00
6680;BME280;3376;42.664;23.346;2022-10-22T05:16:10;95254.75;;;7.97;100.00
6680;BME280;3376;42.664;23.346;2022-10-22T05:18:39;95311.66;;;8.42;100.00
6680;BME280;3376;42.664;23.346;2022-10-22T05:21:09;95323.84;;;8.50;100.00
6680;BME280;3376;42.664;23.346;2022-10-22T05:23:37;95188.63;;;7.69;100.00
6680;BME280;3376;42.664;23.346;2022-10-22T05:26:05;95327.97;;;8.43;100.00
6680;BME280;3376;42.664;23.346;2022-10-22T05:28:33;95322.13;;;8.41;100.00
6680;BME280;3376;42.664;23.346;2022-10-22T05:31:00;95314.13;;;8.34;100.00
6680;BME280;3376;42.664;23.346;2022-10-22T05:33:29;95317.63;;;8.43;100.00
6680;BME280;3376;42.664;23.346;2022-10-22T05:35:56;95305.66;;;8.42;100.00
6680;BME280;3376;42.664;23.346;2022-10-22T05:38:25;95313.91;;;8.55;100.00
6680;BME280;3376;42.664;23.346;2022-10-22T05:40:59;95300.22;;;8.45;100.00
6680;BME280;3376;42.664;23.346;2022-10-22T05:43:26;95324.31;;;8.63;100.00
6680;BME280;3376;42.664;23.346;2022-10-22T05:45:53;95325.53;;;8.68;100.00
6680;BME280;3376;42.664;23.346;2022-10-22T05:48:20;95104.53;;;7.32;100.00
6680;BME280;3376;42.664;23.346;2022-10-22T05:50:47;95328.63;;;8.72;100.00
6680;BME280;3376;42.664;23.346;2022-10-22T05:53:15;95324.81;;;8.76;100.00
6680;BME280;3376;42.664;23.346;2022-10-22T05:55:44;95329.75;;;8.87;100.00
6680;BME280;3376;42.664;23.346;2022-10-22T05:58:11;95313.97;;;9.07;100.00
6680;BME280;3376;42.664;23.346;2022-10-22T06:00:38;95326.31;;;9.31;100.00
6680;BME280;3376;42.664;23.346;2022-10-22T06:03:05;95330.09;;;9.54;100.00
6680;BME280;3376;42.664;23.346;2022-10-22T06:05:34;95334.75;;;9.68;100.00
6680;BME280;3376;42.664;23.346;2022-10-22T06:08:01;95338.72;;;9.80;100.00
6680;BME280;3376;42.664;23.346;2022-10-22T06:10:28;95338.50;;;9.99;100.00
6680;BME280;3376;42.664;23.346;2022-10-22T06:12:57;95341.78;;;10.27;98.52
6680;BME280;3376;42.664;23.346;2022-10-22T06:15:25;95316.28;;;10.40;96.81
6680;BME280;3376;42.664;23.346;2022-10-22T06:17:52;95338.34;;;10.94;94.35
6680;BME280;3376;42.664;23.346;2022-10-22T06:20:19;95338.44;;;11.42;90.88
6680;BME280;3376;42.664;23.346;2022-10-22T06:22:46;95318.03;;;11.95;86.91
6680;BME280;3376;42.664;23.346;2022-10-22T06:25:13;95342.81;;;12.84;81.37
6680;BME280;3376;42.664;23.346;2022-10-22T06:27:41;95350.47;;;13.70;77.40
6680;BME280;3376;42.664;23.346;2022-10-22T06:30:10;95358.25;;;14.38;73.71
6680;BME280;3376;42.664;23.346;2022-10-22T06:32:36;95347.53;;;15.05;72.77
6680;BME280;3376;42.664;23.346;2022-10-22T06:35:04;95350.50;;;15.74;67.95
6680;BME280;3376;42.664;23.346;2022-10-22T06:37:31;95365.78;;;16.40;65.67
6680;BME280;3376;42.664;23.346;2022-10-22T06:39:57;95363.94;;;17.02;61.31
6680;BME280;3376;42.664;23.346;2022-10-22T06:42:24;95361.78;;;17.46;61.80
6680;BME280;3376;42.664;23.346;2022-10-22T06:44:51;95341.06;;;17.78;58.67
6680;BME280;3376;42.664;23.346;2022-10-22T06:47:19;95356.84;;;18.43;56.49
6680;BME280;3376;42.664;23.346;2022-10-22T06:49:47;95355.00;;;18.76;56.07
6680;BME280;3376;42.664;23.346;2022-10-22T06:52:14;95341.03;;;18.95;54.09
6680;BME280;3376;42.664;23.346;2022-10-22T06:54:41;95346.13;;;19.41;51.73
6680;BME280;3376;42.664;23.346;2022-10-22T06:57:08;95336.88;;;19.69;50.44
6680;BME280;3376;42.664;23.346;2022-10-22T06:59:35;95349.69;;;19.90;51.16
6680;BME280;3376;42.664;23.346;2022-10-22T07:02:02;95354.63;;;19.80;50.46
6680;BME280;3376;42.664;23.346;2022-10-22T07:04:30;95357.84;;;20.14;50.24
6680;BME280;3376;42.664;23.346;2022-10-22T07:06:57;95320.63;;;20.10;48.93
6680;BME280;3376;42.664;23.346;2022-10-22T07:09:23;95352.72;;;20.50;48.39
6680;BME280;3376;42.664;23.346;2022-10-22T07:11:50;95356.00;;;20.88;47.55
6680;BME280;3376;42.664;23.346;2022-10-22T07:14:17;95349.88;;;21.12;46.73
6680;BME280;3376;42.664;23.346;2022-10-22T07:16:44;95342.03;;;21.42;45.38
6680;BME280;3376;42.664;23.346;2022-10-22T07:19:11;95352.72;;;21.65;45.32
6680;BME280;3376;42.664;23.346;2022-10-22T07:21:40;95351.66;;;21.66;45.28
6680;BME280;3376;42.664;23.346;2022-10-22T07:24:07;95357.28;;;21.87;44.48
6680;BME280;3376;42.664;23.346;2022-10-22T07:26:34;95350.66;;;21.96;43.67
6680;BME280;3376;42.664;23.346;2022-10-22T07:29:01;95344.34;;;21.97;43.50
6680;BME280;3376;42.664;23.346;2022-10-22T07:31:29;95354.00;;;22.03;43.19
6680;BME280;3376;42.664;23.346;2022-10-22T07:33:56;95350.84;;;22.25;42.62
6680;BME280;3376;42.664;23.346;2022-10-22T07:36:23;95335.59;;;22.38;42.23
6680;BME280;3376;42.664;23.346;2022-10-22T07:38:55;95353.50;;;22.48;41.86
6680;BME280;3376;42.664;23.346;2022-10-22T07:41:23;95347.75;;;22.39;41.56
6680;BME280;3376;42.664;23.346;2022-10-22T07:43:50;95311.78;;;22.15;41.76
6680;BME280;3376;42.664;23.346;2022-10-22T07:46:17;95330.22;;;22.45;41.78
6680;BME280;3376;42.664;23.346;2022-10-22T07:48:44;95334.44;;;22.34;41.10
6680;BME280;3376;42.664;23.346;2022-10-22T07:51:11;95330.75;;;22.24;41.73
6680;BME280;3376;42.664;23.346;2022-10-22T07:53:38;95320.66;;;22.21;41.92
6680;BME280;3376;42.664;23.346;2022-10-22T07:56:06;95309.84;;;21.99;42.00
6680;BME280;3376;42.664;23.346;2022-10-22T07:58:34;95324.69;;;22.23;41.64
6680;BME280;3376;42.664;23.346;2022-10-22T08:01:01;95327.13;;;22.59;40.79
6680;BME280;3376;42.664;23.346;2022-10-22T08:03:30;95328.38;;;22.80;40.06
6680;BME280;3376;42.664;23.346;2022-10-22T08:05:57;95285.22;;;22.74;39.48
6680;BME280;3376;42.664;23.346;2022-10-22T08:08:25;95326.47;;;23.26;39.12
6680;BME280;3376;42.664;23.346;2022-10-22T08:10:55;95167.16;;;22.52;38.65
6680;BME280;3376;42.664;23.346;2022-10-22T08:13:24;95306.09;;;23.95;37.32
6680;BME280;3376;42.664;23.346;2022-10-22T08:15:52;95270.34;;;23.92;36.85
6680;BME280;3376;42.664;23.346;2022-10-22T08:18:18;95316.03;;;24.32;36.96
6680;BME280;3376;42.664;23.346;2022-10-22T08:20:45;95328.47;;;24.49;36.57
6680;BME280;3376;42.664;23.346;2022-10-22T08:23:12;95320.84;;;24.52;36.22
6680;BME280;3376;42.664;23.346;2022-10-22T08:25:39;95307.28;;;24.49;36.13
6680;BME280;3376;42.664;23.346;2022-10-22T08:28:05;95289.69;;;24.76;35.51
6680;BME280;3376;42.664;23.346;2022-10-22T08:30:34;95299.34;;;25.03;35.04
6680;BME280;3376;42.664;23.346;2022-10-22T08:33:03;95299.66;;;25.07;35.01
6680;BME280;3376;42.664;23.346;2022-10-22T08:35:30;95304.66;;;25.25;34.47
6680;BME280;3376;42.664;23.346;2022-10-22T08:37:57;95238.97;;;24.89;34.43
6680;BME280;3376;42.664;23.346;2022-10-22T08:40:28;95308.47;;;25.34;34.58
6680;BME280;3376;42.664;23.346;2022-10-22T08:45:54;95308.03;;;24.99;34.62
6680;BME280;3376;42.664;23.346;2022-10-22T08:48:35;95307.09;;;24.88;34.76
6680;BME280;3376;42.664;23.346;2022-10-22T08:51:10;95314.28;;;24.71;34.98
6680;BME280;3376;42.664;23.346;2022-10-22T08:53:41;95309.06;;;24.60;35.15
6680;BME280;3376;42.664;23.346;2022-10-22T08:56:13;95305.16;;;24.84;35.06
6680;BME280;3376;42.664;23.346;2022-10-22T08:58:43;95304.84;;;24.97;34.90
6680;BME280;3376;42.664;23.346;2022-10-22T09:01:18;95301.19;;;25.03;34.84
6680;BME280;3376;42.664;23.346;2022-10-22T09:03:51;95292.53;;;24.53;35.04
6680;BME280;3376;42.664;23.346;2022-10-22T09:06:24;95308.25;;;24.59;35.18
6680;BME280;3376;42.664;23.346;2022-10-22T09:08:51;95304.88;;;24.80;35.23
6680;BME280;3376;42.664;23.346;2022-10-22T09:11:24;95301.28;;;24.70;34.87
6680;BME280;3376;42.664;23.346;2022-10-22T09:13:52;95294.88;;;24.87;34.77
6680;BME280;3376;42.664;23.346;2022-10-22T09:16:25;95294.84;;;25.04;34.73
6680;BME280;3376;42.664;23.346;2022-10-22T09:19:05;95289.59;;;25.30;33.90
6680;BME280;3376;42.664;23.346;2022-10-22T09:21:43;95293.25;;;25.46;33.73
6680;BME280;3376;42.664;23.346;2022-10-22T09:24:13;95293.16;;;25.36;33.62
6680;BME280;3376;42.664;23.346;2022-10-22T09:26:42;95289.00;;;25.02;34.63
6680;BME280;3376;42.664;23.346;2022-10-22T09:29:16;95168.00;;;24.14;34.36
6680;BME280;3376;42.664;23.346;2022-10-22T09:31:46;95279.34;;;24.96;34.49
6680;BME280;3376;42.664;23.346;2022-10-22T09:34:13;95260.47;;;24.92;34.38
6680;BME280;3376;42.664;23.346;2022-10-22T09:36:40;95254.81;;;25.05;34.02
6680;BME280;3376;42.664;23.346;2022-10-22T09:39:21;95285.91;;;25.31;34.05
6680;BME280;3376;42.664;23.346;2022-10-22T09:41:49;95246.06;;;25.26;33.78
6680;BME280;3376;42.664;23.346;2022-10-22T09:44:16;95272.47;;;25.38;34.67
6680;BME280;3376;42.664;23.346;2022-10-22T09:46:43;95263.06;;;25.30;34.18
6680;BME280;3376;42.664;23.346;2022-10-22T09:49:13;95198.16;;;24.90;34.14
6680;BME280;3376;42.664;23.346;2022-10-22T09:51:49;95248.13;;;25.68;33.73
6680;BME280;3376;42.664;23.346;2022-10-22T09:54:19;95256.81;;;25.63;33.32
6680;BME280;3376;42.664;23.346;2022-10-22T09:56:50;95254.56;;;25.50;33.92
6680;BME280;3376;42.664;23.346;2022-10-22T09:59:25;95244.22;;;25.80;33.59
6680;BME280;3376;42.664;23.346;2022-10-22T10:01:58;95248.69;;;25.75;33.81
6680;BME280;3376;42.664;23.346;2022-10-22T10:04:26;95099.19;;;24.84;33.51
6680;BME280;3376;42.664;23.346;2022-10-22T10:06:55;95250.66;;;25.84;33.61
6680;BME280;3376;42.664;23.346;2022-10-22T10:09:23;95212.47;;;25.59;33.93
6680;BME280;3376;42.664;23.346;2022-10-22T10:11:55;95232.41;;;25.66;33.19
6680;BME280;3376;42.664;23.346;2022-10-22T10:14:32;95229.28;;;25.42;34.41
6680;BME280;3376;42.664;23.346;2022-10-22T10:17:05;95232.28;;;25.08;34.82
6680;BME280;3376;42.664;23.346;2022-10-22T10:19:45;95235.81;;;24.54;35.44
6680;BME280;3376;42.664;23.346;2022-10-22T10:22:31;95234.53;;;24.73;35.24
6680;BME280;3376;42.664;23.346;2022-10-22T10:25:11;95226.13;;;24.81;35.08
6680;BME280;3376;42.664;23.346;2022-10-22T10:27:43;95224.34;;;24.86;35.01
6680;BME280;3376;42.664;23.346;2022-10-22T10:30:15;95207.31;;;24.61;35.21
6680;BME280;3376;42.664;23.346;2022-10-22T10:32:54;95215.75;;;24.58;35.20
6680;BME280;3376;42.664;23.346;2022-10-22T10:35:32;95212.59;;;24.99;35.13
6680;BME280;3376;42.664;23.346;2022-10-22T10:38:13;95219.59;;;25.31;34.86
6680;BME280;3376;42.664;23.346;2022-10-22T10:40:47;95209.09;;;25.68;34.62
6680;BME280;3376;42.664;23.346;2022-10-22T10:43:22;95207.56;;;25.77;33.74
6680;BME280;3376;42.664;23.346;2022-10-22T10:45:59;95191.13;;;25.80;33.78
6680;BME280;3376;42.664;23.346;2022-10-22T10:48:44;95199.78;;;25.97;33.51
6680;BME280;3376;42.664;23.346;2022-10-22T10:54:17;95089.09;;;24.81;41.71
6680;BME280;3376;42.664;23.346;2022-10-22T10:56:50;95148.59;;;25.38;35.38
6680;BME280;3376;42.664;23.346;2022-10-22T10:59:41;94998.97;;;24.81;38.91
6680;BME280;3376;42.664;23.346;2022-10-22T11:05:19;95156.91;;;25.47;37.28
6680;BME280;3376;42.664;23.346;2022-10-22T11:07:52;95151.13;;;25.92;37.55
6680;BME280;3376;42.664;23.346;2022-10-22T11:10:27;95134.53;;;25.75;37.44
6680;BME280;3376;42.664;23.346;2022-10-22T11:13:00;95140.44;;;26.13;35.22
6680;BME280;3376;42.664;23.346;2022-10-22T11:15:31;95127.84;;;26.45;34.01
6680;BME280;3376;42.664;23.346;2022-10-22T11:18:04;95118.09;;;26.66;33.44
6680;BME280;3376;42.664;23.346;2022-10-22T11:20:43;95129.25;;;26.63;32.66
6680;BME280;3376;42.664;23.346;2022-10-22T11:23:16;95123.41;;;26.66;34.52
6680;BME280;3376;42.664;23.346;2022-10-22T11:25:46;95079.47;;;26.48;32.75
6680;BME280;3376;42.664;23.346;2022-10-22T11:28:17;95117.41;;;26.91;32.49
6680;BME280;3376;42.664;23.346;2022-10-22T11:30:48;95106.25;;;27.04;32.53
6680;BME280;3376;42.664;23.346;2022-10-22T11:33:20;95097.78;;;27.17;32.56
6680;BME280;3376;42.664;23.346;2022-10-22T11:35:48;95108.72;;;27.25;33.00
6680;BME280;3376;42.664;23.346;2022-10-22T11:38:21;95101.56;;;27.46;31.84
6680;BME280;3376;42.664;23.346;2022-10-22T11:40:51;95099.91;;;27.20;32.72
6680;BME280;3376;42.664;23.346;2022-10-22T11:43:28;95097.75;;;27.07;32.68
6680;BME280;3376;42.664;23.346;2022-10-22T11:46:08;95093.25;;;27.07;32.86
6680;BME280;3376;42.664;23.346;2022-10-22T11:49:01;95090.84;;;27.16;32.27
6680;BME280;3376;42.664;23.346;2022-10-22T11:51:32;95087.94;;;27.27;31.69
6680;BME280;3376;42.664;23.346;2022-10-22T11:54:15;95088.75;;;27.28;31.52
6680;BME280;3376;42.664;23.346;2022-10-22T11:56:51;95051.75;;;27.11;34.32
6680;BME280;3376;42.664;23.346;2022-10-22T11:59:37;95088.63;;;26.78;34.62
6680;BME280;3376;42.664;23.346;2022-10-22T12:02:23;95073.94;;;26.60;33.88
6680;BME280;3376;42.664;23.346;2022-10-22T12:04:50;95078.59;;;26.33;35.17
6680;BME280;3376;42.664;23.346;2022-10-22T12:07:32;95074.03;;;26.18;37.65
6680;BME280;3376;42.664;23.346;2022-10-22T12:10:04;95060.50;;;26.20;37.09
6680;BME280;3376;42.664;23.346;2022-10-22T12:12:35;95055.00;;;25.90;34.96
6680;BME280;3376;42.664;23.346;2022-10-22T12:15:21;95066.22;;;25.97;36.18
6680;BME280;3376;42.664;23.346;2022-10-22T12:17:49;95056.81;;;25.79;36.29
6680;BME280;3376;42.664;23.346;2022-10-22T12:20:16;95049.44;;;25.91;35.32
6680;BME280;3376;42.664;23.346;2022-10-22T12:22:43;95052.84;;;25.87;34.78
6680;BME280;3376;42.664;23.346;2022-10-22T12:25:17;95056.25;;;25.77;35.19
6680;BME280;3376;42.664;23.346;2022-10-22T12:27:49;95043.53;;;25.42;36.95
6680;BME280;3376;42.664;23.346;2022-10-22T12:30:19;95053.00;;;25.65;35.17
6680;BME280;3376;42.664;23.346;2022-10-22T12:32:50;95059.44;;;25.74;37.62
6680;BME280;3376;42.664;23.346;2022-10-22T12:35:20;95050.44;;;25.85;36.50
6680;BME280;3376;42.664;23.346;2022-10-22T12:37:49;95052.09;;;25.91;34.77
6680;BME280;3376;42.664;23.346;2022-10-22T12:40:20;95047.09;;;25.58;35.19
6680;BME280;3376;42.664;23.346;2022-10-22T12:42:53;95023.72;;;25.23;35.86
6680;BME280;3376;42.664;23.346;2022-10-22T12:45:21;95043.50;;;25.06;36.69
6680;BME280;3376;42.664;23.346;2022-10-22T12:47:51;95020.13;;;24.76;36.51
6680;BME280;3376;42.664;23.346;2022-10-22T12:50:20;95035.31;;;25.12;37.09
6680;BME280;3376;42.664;23.346;2022-10-22T12:52:48;95027.19;;;25.24;37.17
6680;BME280;3376;42.664;23.346;2022-10-22T12:55:16;95028.38;;;25.38;36.49
6680;BME280;3376;42.664;23.346;2022-10-22T12:57:47;95017.28;;;25.46;35.32
6680;BME280;3376;42.664;23.346;2022-10-22T13:00:22;95031.16;;;25.58;36.41
6680;BME280;3376;42.664;23.346;2022-10-22T13:02:51;95025.28;;;25.51;35.32
6680;BME280;3376;42.664;23.346;2022-10-22T13:05:23;95027.34;;;25.81;36.25
6680;BME280;3376;42.664;23.346;2022-10-22T13:07:54;95007.94;;;25.80;34.94
6680;BME280;3376;42.664;23.346;2022-10-22T13:10:31;95020.13;;;25.71;35.86
6680;BME280;3376;42.664;23.346;2022-10-22T13:12:59;95015.38;;;25.83;34.43
6680;BME280;3376;42.664;23.346;2022-10-22T13:15:37;94998.31;;;25.64;34.74
6680;BME280;3376;42.664;23.346;2022-10-22T13:18:13;95000.19;;;25.32;35.75
6680;BME280;3376;42.664;23.346;2022-10-22T13:20:50;95002.13;;;25.10;36.28
6680;BME280;3376;42.664;23.346;2022-10-22T13:23:18;95012.78;;;25.15;35.59
6680;BME280;3376;42.664;23.346;2022-10-22T13:25:56;94991.06;;;24.86;35.68
6680;BME280;3376;42.664;23.346;2022-10-22T13:28:25;94979.88;;;24.79;35.32
6680;BME280;3376;42.664;23.346;2022-10-22T13:30:54;95016.25;;;24.35;36.58
6680;BME280;3376;42.664;23.346;2022-10-22T13:33:23;94998.00;;;24.17;37.42
6680;BME280;3376;42.664;23.346;2022-10-22T13:35:52;94986.16;;;24.20;37.16